createdAt,value
2023-02-17T00:01:19.061Z,0.42
2023-02-17T00:03:52.958Z,0.41
2023-02-17T00:06:28.543Z,0.38
2023-02-17T00:09:02.373Z,0.36
2023-02-17T00:11:35.629Z,0.21
2023-02-17T00:14:08.892Z,0.23
2023-02-17T00:16:41.919Z,0.30
2023-02-17T00:19:25.552Z,0.23
2023-02-17T00:22:01.184Z,0.22
2023-02-17T00:24:35.979Z,0.20
2023-02-17T00:27:09.282Z,0.15
2023-02-17T00:29:42.361Z,0.13
2023-02-17T00:32:15.424Z,0.19
2023-02-17T00:34:48.793Z,0.04
2023-02-17T00:37:21.734Z,0.18
2023-02-17T00:39:54.780Z,0.16
2023-02-17T00:42:27.930Z,0.15
2023-02-17T00:45:07.543Z,0.13
2023-02-17T00:47:40.244Z,0.03
2023-02-17T00:50:15.853Z,0.08
2023-02-17T00:52:49.197Z,0.09
2023-02-17T00:55:22.122Z,0.03
2023-02-17T00:57:55.484Z,0.09
2023-02-17T01:00:28.565Z,0.08
2023-02-17T01:03:01.720Z,0.06
2023-02-17T01:05:35.023Z,0.04
2023-02-17T01:08:08.168Z,0.00
2023-02-17T01:10:43.031Z,-0.05
2023-02-17T01:13:16.813Z,-0.01
2023-02-17T01:15:52.758Z,0.06
2023-02-17T01:18:27.536Z,0.06
2023-02-17T01:21:00.592Z,-0.04
2023-02-17T01:23:33.766Z,-0.11
2023-02-17T01:26:07.088Z,0.01
2023-02-17T01:28:40.217Z,-0.01
2023-02-17T01:31:14.748Z,-0.02
2023-02-17T01:33:48.300Z,-0.03
2023-02-17T01:36:22.115Z,-0.04
2023-02-17T01:38:55.669Z,-0.04
2023-02-17T01:41:29.559Z,-0.08
2023-02-17T01:44:21.168Z,-0.05
2023-02-17T01:46:56.685Z,-0.05
2023-02-17T01:49:33.356Z,-0.11
2023-02-17T01:52:06.273Z,-0.16
2023-02-17T01:54:53.564Z,-0.19
2023-02-17T01:57:29.653Z,-0.33
2023-02-17T02:00:03.049Z,-0.16
2023-02-17T02:02:51.394Z,-0.25
2023-02-17T02:05:25.413Z,-0.19
2023-02-17T02:07:59.129Z,-0.19
2023-02-17T02:10:32.212Z,-0.21
2023-02-17T02:13:06.001Z,-0.22
2023-02-17T02:15:51.726Z,-0.38
2023-02-17T02:18:50.206Z,-0.32
2023-02-17T02:21:56.388Z,-0.34
2023-02-17T02:24:54.276Z,-0.38
2023-02-17T02:27:44.638Z,-0.41
2023-02-17T02:30:41.916Z,-0.37
2023-02-17T02:33:40.574Z,-0.31
2023-02-17T02:36:28.498Z,-0.38
2023-02-17T02:39:03.368Z,-0.37
2023-02-17T02:41:45.772Z,-0.27
2023-02-17T02:44:20.192Z,-0.26
2023-02-17T02:47:05.235Z,-0.30
2023-02-17T02:49:40.048Z,-0.25
2023-02-17T02:52:34.761Z,-0.26
2023-02-17T02:55:31.230Z,-0.30
2023-02-17T02:58:13.096Z,-0.39
2023-02-17T03:01:17.802Z,-0.26
2023-02-17T03:04:04.552Z,-0.32
2023-02-17T03:07:21.658Z,-0.40
2023-02-17T03:09:58.127Z,-0.32
2023-02-17T03:12:32.176Z,-0.32
2023-02-17T03:15:24.657Z,-0.22
2023-02-17T03:18:04.023Z,-0.23
2023-02-17T03:20:46.795Z,-0.26
2023-02-17T03:23:20.830Z,-0.29
2023-02-17T03:25:54.629Z,-0.30
2023-02-17T03:28:28.662Z,-0.39
2023-02-17T03:31:04.258Z,-0.42
2023-02-17T03:33:37.536Z,-0.35
2023-02-17T03:36:11.336Z,-0.42
2023-02-17T03:38:44.657Z,-0.50
2023-02-17T03:41:18.010Z,-0.54
2023-02-17T03:43:51.274Z,-0.39
2023-02-17T03:46:24.457Z,-0.51
2023-02-17T03:48:57.927Z,-0.53
2023-02-17T03:51:30.931Z,-0.44
2023-02-17T03:54:04.391Z,-0.45
2023-02-17T03:56:37.448Z,-0.48
2023-02-17T03:59:10.649Z,-0.52
2023-02-17T04:01:43.998Z,-0.42
2023-02-17T04:04:17.423Z,-0.44
2023-02-17T04:06:51.853Z,-0.41
2023-02-17T04:09:25.327Z,-0.34
2023-02-17T04:11:58.770Z,-0.32
2023-02-17T04:14:32.511Z,-0.42
2023-02-17T04:17:05.896Z,-0.32
2023-02-17T04:19:39.490Z,-0.39
2023-02-17T04:22:12.814Z,-0.31
2023-02-17T04:24:47.057Z,-0.30
2023-02-17T04:27:20.386Z,-0.32
2023-02-17T04:29:55.026Z,-0.32
2023-02-17T04:32:28.336Z,-0.33
2023-02-17T04:35:01.683Z,-0.41
2023-02-17T04:37:34.828Z,-0.34
2023-02-17T04:40:11.069Z,-0.34
2023-02-17T04:42:44.104Z,-0.34
2023-02-17T04:45:17.340Z,-0.42
2023-02-17T04:47:50.685Z,-0.50
2023-02-17T04:50:24.574Z,-0.31
2023-02-17T04:52:57.683Z,-0.37
2023-02-17T04:55:31.184Z,-0.35
2023-02-17T04:58:04.866Z,-0.46
2023-02-17T05:00:39.117Z,-0.37
2023-02-17T05:03:12.385Z,-0.37
2023-02-17T05:05:45.768Z,-0.41
2023-02-17T05:08:18.809Z,-0.42
2023-02-17T05:10:54.238Z,-0.36
2023-02-17T05:13:28.228Z,-0.42
2023-02-17T05:16:02.058Z,-0.38
2023-02-17T05:18:35.149Z,-0.25
2023-02-17T05:21:08.244Z,-0.28
2023-02-17T05:23:41.606Z,-0.32
2023-02-17T05:26:15.373Z,-0.22
2023-02-17T05:28:48.576Z,-0.25
2023-02-17T05:31:22.285Z,-0.25
2023-02-17T05:33:56.993Z,-0.30
2023-02-17T05:36:30.454Z,-0.19
2023-02-17T05:39:03.120Z,-0.15
2023-02-17T05:41:36.079Z,-0.27
2023-02-17T05:44:09.353Z,-0.07
2023-02-17T05:46:42.249Z,-0.01
2023-02-17T05:49:15.391Z,0.04
2023-02-17T05:51:48.520Z,0.08
2023-02-17T05:54:22.054Z,0.05
2023-02-17T05:56:55.490Z,0.20
2023-02-17T05:59:28.619Z,0.27
2023-02-17T06:02:01.594Z,0.28
2023-02-17T06:04:35.461Z,0.34
2023-02-17T06:07:08.950Z,0.47
2023-02-17T06:09:42.445Z,0.55
2023-02-17T06:12:15.521Z,0.61
2023-02-17T06:14:48.347Z,0.68
2023-02-17T06:17:21.590Z,0.74
2023-02-17T06:19:55.571Z,0.80
2023-02-17T06:22:28.883Z,0.85
2023-02-17T06:25:02.106Z,0.89
2023-02-17T06:27:36.582Z,0.95
2023-02-17T06:30:10.833Z,1.01
2023-02-17T06:32:44.713Z,1.08
2023-02-17T06:35:18.494Z,1.06
2023-02-17T06:37:52.170Z,1.19
2023-02-17T06:40:27.513Z,1.23
2023-02-17T06:43:01.809Z,1.27
2023-02-17T06:45:35.088Z,1.29
2023-02-17T06:48:08.968Z,1.33
2023-02-17T06:50:42.663Z,1.35
2023-02-17T06:53:16.326Z,1.30
2023-02-17T06:55:54.384Z,1.42
2023-02-17T06:58:28.189Z,1.46
2023-02-17T07:01:01.248Z,1.48
2023-02-17T07:03:35.368Z,1.49
2023-02-17T07:06:10.042Z,1.57
2023-02-17T07:08:43.667Z,1.60
2023-02-17T07:11:17.687Z,1.63
2023-02-17T07:13:51.926Z,1.54
2023-02-17T07:16:25.456Z,1.60
2023-02-17T07:18:59.063Z,1.67
2023-02-17T07:21:32.291Z,1.72
2023-02-17T07:24:07.234Z,1.76
2023-02-17T07:26:41.408Z,1.91
2023-02-17T07:29:15.404Z,2.04
2023-02-17T07:31:49.025Z,2.15
2023-02-17T07:34:24.542Z,2.23
2023-02-17T07:36:58.131Z,2.25
2023-02-17T07:39:31.980Z,2.32
2023-02-17T07:42:06.689Z,2.49
2023-02-17T07:44:40.742Z,2.44
2023-02-17T07:47:14.288Z,2.51
2023-02-17T07:49:48.047Z,2.53
2023-02-17T07:52:22.038Z,2.58
2023-02-17T07:54:55.807Z,2.69
2023-02-17T07:57:29.263Z,2.75
2023-02-17T08:00:03.179Z,2.82
2023-02-17T08:02:47.319Z,2.90
2023-02-17T08:05:21.021Z,3.00
2023-02-17T08:08:18.145Z,3.09
2023-02-17T08:11:10.320Z,3.21
2023-02-17T08:13:43.759Z,3.29
2023-02-17T08:16:17.489Z,3.43
2023-02-17T08:18:50.665Z,3.45
2023-02-17T08:21:23.772Z,3.59
2023-02-17T08:23:57.168Z,3.65
2023-02-17T08:26:30.694Z,3.73
2023-02-17T08:29:03.743Z,3.82
2023-02-17T08:31:39.200Z,3.87
2023-02-17T08:34:14.175Z,3.99
2023-02-17T08:36:47.275Z,4.06
2023-02-17T08:39:20.998Z,4.13
2023-02-17T08:41:54.820Z,4.20
2023-02-17T08:44:28.285Z,4.28
2023-02-17T08:47:01.377Z,4.37
2023-02-17T08:49:35.364Z,4.38
2023-02-17T08:52:09.103Z,4.50
2023-02-17T08:54:42.872Z,4.52
2023-02-17T08:57:20.365Z,4.59
2023-02-17T08:59:54.402Z,4.73
2023-02-17T09:02:28.629Z,4.84
2023-02-17T09:05:03.674Z,4.92
2023-02-17T09:07:38.417Z,5.03
2023-02-17T09:10:14.929Z,5.09
2023-02-17T09:12:48.723Z,5.10
2023-02-17T09:15:22.566Z,5.26
2023-02-17T09:17:56.557Z,5.33
2023-02-17T09:20:29.988Z,5.40
2023-02-17T09:23:03.368Z,5.45
2023-02-17T09:25:38.300Z,5.47
2023-02-17T09:28:12.186Z,5.65
2023-02-17T09:30:46.576Z,5.76
2023-02-17T09:33:19.905Z,5.88
2023-02-17T09:35:54.471Z,5.98
2023-02-17T09:38:27.564Z,6.12
2023-02-17T09:41:11.877Z,6.27
2023-02-17T09:43:46.173Z,6.40
2023-02-17T09:46:32.602Z,6.53
2023-02-17T09:49:19.961Z,6.69
2023-02-17T09:52:04.516Z,6.81
2023-02-17T09:54:56.818Z,7.02
2023-02-17T09:57:34.724Z,7.32
2023-02-17T10:00:23.605Z,7.48
2023-02-17T10:03:10.315Z,7.74
2023-02-17T10:05:57.405Z,8.03
2023-02-17T10:08:36.782Z,8.31
2023-02-17T10:11:37.717Z,8.55
2023-02-17T10:14:28.709Z,8.76
2023-02-17T10:17:18.754Z,8.96
2023-02-17T10:20:22.792Z,9.14
2023-02-17T10:23:17.585Z,9.33
2023-02-17T10:26:30.567Z,9.54
2023-02-17T10:29:09.405Z,9.61
2023-02-17T10:32:03.478Z,9.90
2023-02-17T10:34:48.561Z,10.08
2023-02-17T10:37:49.199Z,10.29
2023-02-17T10:40:26.502Z,10.50
2023-02-17T10:43:12.824Z,10.64
2023-02-17T10:45:50.574Z,10.79
2023-02-17T10:48:36.979Z,10.87
2023-02-17T10:51:14.052Z,10.95
2023-02-17T10:53:53.726Z,11.12
2023-02-17T10:56:42.212Z,11.20
2023-02-17T10:59:32.992Z,11.31
2023-02-17T11:02:20.322Z,11.45
2023-02-17T11:05:00.696Z,11.53
2023-02-17T11:07:42.420Z,11.61
2023-02-17T11:10:35.434Z,11.66
2023-02-17T11:13:43.632Z,11.78
2023-02-17T11:16:37.233Z,11.83
2023-02-17T11:19:35.739Z,11.98
2023-02-17T11:22:30.921Z,12.12
2023-02-17T11:25:24.881Z,12.23
2023-02-17T11:28:05.255Z,12.20
2023-02-17T11:30:41.444Z,12.24
2023-02-17T11:33:23.578Z,12.32
2023-02-17T11:35:56.539Z,12.39
2023-02-17T11:38:30.382Z,12.38
2023-02-17T11:41:05.906Z,12.42
2023-02-17T11:43:40.544Z,12.48
2023-02-17T11:46:35.208Z,12.56
2023-02-17T11:49:44.330Z,12.60
2023-02-17T11:52:21.210Z,12.64
2023-02-17T11:55:17.977Z,12.69
2023-02-17T11:58:28.184Z,12.72
2023-02-17T12:01:19.252Z,12.76
2023-02-17T12:04:27.507Z,12.79
2023-02-17T12:07:17.385Z,12.76
2023-02-17T12:10:18.165Z,12.81
2023-02-17T12:13:19.056Z,12.80
2023-02-17T12:16:03.330Z,12.87
2023-02-17T12:19:16.765Z,12.94
2023-02-17T12:22:16.823Z,12.88
2023-02-17T12:25:10.710Z,12.97
2023-02-17T12:27:57.638Z,12.95
2023-02-17T12:30:44.058Z,12.95
2023-02-17T12:33:41.951Z,12.98
2023-02-17T12:36:21.592Z,12.94
2023-02-17T12:39:04.338Z,12.87
2023-02-17T12:41:42.703Z,12.78
2023-02-17T12:44:30.810Z,12.86
2023-02-17T12:47:14.358Z,12.81
2023-02-17T12:49:55.726Z,12.89
2023-02-17T12:52:32.802Z,13.01
2023-02-17T12:55:27.875Z,13.00
2023-02-17T12:58:24.225Z,13.00
2023-02-17T13:01:19.885Z,13.02
2023-02-17T13:03:53.734Z,13.00
2023-02-17T13:06:33.496Z,12.99
2023-02-17T13:09:23.503Z,13.02
2023-02-17T13:11:56.632Z,12.99
2023-02-17T13:14:41.007Z,12.90
2023-02-17T13:17:26.709Z,12.79
2023-02-17T13:20:30.562Z,12.62
2023-02-17T13:23:10.546Z,12.40
2023-02-17T13:25:44.215Z,12.24
2023-02-17T13:28:40.212Z,12.12
2023-02-17T13:31:14.767Z,11.94
2023-02-17T13:34:00.181Z,11.83
2023-02-17T13:36:35.474Z,11.61
2023-02-17T13:39:30.590Z,11.50
2023-02-17T13:42:04.673Z,11.40
2023-02-17T13:44:49.243Z,11.31
2023-02-17T13:47:38.317Z,11.30
2023-02-17T13:50:31.529Z,11.31
2023-02-17T13:53:22.788Z,11.30
2023-02-17T13:55:59.309Z,11.36
2023-02-17T13:58:37.697Z,11.39
2023-02-17T14:01:17.844Z,11.35
2023-02-17T14:03:55.052Z,11.34
2023-02-17T14:06:41.683Z,11.46
2023-02-17T14:09:31.206Z,11.46
2023-02-17T14:12:19.877Z,11.50
2023-02-17T14:14:53.030Z,11.47
2023-02-17T14:17:38.709Z,11.48
2023-02-17T14:20:29.279Z,11.39
2023-02-17T14:23:16.534Z,11.27
2023-02-17T14:25:52.159Z,11.31
2023-02-17T14:28:29.248Z,11.23
2023-02-17T14:31:13.353Z,11.18
2023-02-17T14:34:00.697Z,11.11
2023-02-17T14:36:40.189Z,11.05
2023-02-17T14:39:17.451Z,10.98
2023-02-17T14:41:50.664Z,10.87
2023-02-17T14:44:24.059Z,10.75
2023-02-17T14:46:57.037Z,10.69
2023-02-17T14:49:30.080Z,10.54
2023-02-17T14:52:03.808Z,10.50
2023-02-17T14:54:37.018Z,10.47
2023-02-17T14:57:14.333Z,10.41
2023-02-17T14:59:48.501Z,10.36
2023-02-17T15:02:23.132Z,10.30
2023-02-17T15:04:56.048Z,10.19
2023-02-17T15:07:29.438Z,10.06
2023-02-17T15:10:02.495Z,9.88
2023-02-17T15:12:35.654Z,9.78
2023-02-17T15:15:08.955Z,9.75
2023-02-17T15:17:42.148Z,9.63
2023-02-17T15:20:17.757Z,9.45
2023-02-17T15:22:53.510Z,9.38
2023-02-17T15:25:27.444Z,9.27
2023-02-17T15:28:00.633Z,9.12
2023-02-17T15:30:34.318Z,9.00
2023-02-17T15:33:11.997Z,8.91
2023-02-17T15:35:45.518Z,8.76
2023-02-17T15:38:18.688Z,8.62
2023-02-17T15:40:52.346Z,8.50
2023-02-17T15:43:29.726Z,8.31
2023-02-17T15:46:02.869Z,8.25
2023-02-17T15:48:35.849Z,8.13
2023-02-17T15:51:11.246Z,7.93
2023-02-17T15:53:45.056Z,7.82
2023-02-17T15:56:24.058Z,7.77
2023-02-17T15:58:58.184Z,7.63
2023-02-17T16:01:36.831Z,7.51
2023-02-17T16:04:12.711Z,7.32
2023-02-17T16:06:45.866Z,7.32
2023-02-17T16:09:20.629Z,7.25
2023-02-17T16:11:57.993Z,7.19
2023-02-17T16:14:41.357Z,7.05
2023-02-17T16:17:17.927Z,6.80
2023-02-17T16:19:51.728Z,6.78
2023-02-17T16:22:24.984Z,6.68
2023-02-17T16:24:58.010Z,6.57
2023-02-17T16:27:31.105Z,6.50
2023-02-17T16:30:04.388Z,6.27
2023-02-17T16:32:38.153Z,6.16
2023-02-17T16:35:16.220Z,6.07
2023-02-17T16:37:56.508Z,5.94
2023-02-17T16:40:31.551Z,5.86
2023-02-17T16:43:05.325Z,5.77
2023-02-17T16:45:38.455Z,5.68
2023-02-17T16:48:21.308Z,5.56
2023-02-17T16:50:54.350Z,5.55
2023-02-17T16:53:27.577Z,5.49
2023-02-17T16:56:01.024Z,5.25
2023-02-17T16:58:34.148Z,5.28
2023-02-17T17:01:14.032Z,5.30
2023-02-17T17:03:47.229Z,5.17
2023-02-17T17:06:26.353Z,5.10
2023-02-17T17:08:59.758Z,5.07
2023-02-17T17:11:33.002Z,5.00
2023-02-17T17:14:06.105Z,4.98
2023-02-17T17:16:40.721Z,4.92
2023-02-17T17:19:14.920Z,4.85
2023-02-17T17:21:49.581Z,4.77
2023-02-17T17:24:22.732Z,4.67
2023-02-17T17:26:56.453Z,4.54
2023-02-17T17:29:29.447Z,4.43
2023-02-17T17:32:03.789Z,4.33
2023-02-17T17:34:36.922Z,4.06
2023-02-17T17:37:12.369Z,4.00
2023-02-17T17:39:45.304Z,3.86
2023-02-17T17:42:18.678Z,3.83
2023-02-17T17:44:51.972Z,3.79
2023-02-17T17:47:30.134Z,3.77
2023-02-17T17:50:06.108Z,3.74
2023-02-17T17:52:39.432Z,3.74
2023-02-17T17:55:13.771Z,3.74
2023-02-17T17:57:48.798Z,3.73
2023-02-17T18:00:22.301Z,3.72
2023-02-17T18:02:55.561Z,3.63
2023-02-17T18:05:28.853Z,3.69
2023-02-17T18:08:02.388Z,3.67
2023-02-17T18:10:36.290Z,3.63
2023-02-17T18:13:12.353Z,3.61
2023-02-17T18:15:46.108Z,3.58
2023-02-17T18:18:20.274Z,3.47
2023-02-17T18:20:53.572Z,3.46
2023-02-17T18:23:26.758Z,3.45
2023-02-17T18:25:59.895Z,3.44
2023-02-17T18:28:32.727Z,3.49
2023-02-17T18:31:12.388Z,3.49
2023-02-17T18:33:46.913Z,3.44
2023-02-17T18:36:23.777Z,3.60
2023-02-17T18:38:57.282Z,3.61
2023-02-17T18:41:33.396Z,3.70
2023-02-17T18:44:07.180Z,3.74
2023-02-17T18:46:40.966Z,3.77
2023-02-17T18:49:14.338Z,3.77
2023-02-17T18:51:48.519Z,3.83
2023-02-17T18:54:22.178Z,3.82
2023-02-17T18:56:59.163Z,3.83
2023-02-17T18:59:33.917Z,3.75
2023-02-17T19:02:10.943Z,3.79
2023-02-17T19:04:46.601Z,3.72
2023-02-17T19:07:20.079Z,3.64
2023-02-17T19:09:55.239Z,3.51
2023-02-17T19:12:29.012Z,3.49
2023-02-17T19:15:04.437Z,3.41
2023-02-17T19:17:37.893Z,3.24
2023-02-17T19:20:11.829Z,3.30
2023-02-17T19:22:44.824Z,3.26
2023-02-17T19:25:24.921Z,3.21
2023-02-17T19:27:58.615Z,3.15
2023-02-17T19:30:32.603Z,3.08
2023-02-17T19:33:05.949Z,3.07
2023-02-17T19:35:43.458Z,2.88
2023-02-17T19:38:16.728Z,2.99
2023-02-17T19:40:50.018Z,2.95
2023-02-17T19:43:26.374Z,2.92
2023-02-17T19:45:59.639Z,2.90
2023-02-17T19:48:33.555Z,2.88
2023-02-17T19:51:09.964Z,2.85
2023-02-17T19:53:43.702Z,2.80
2023-02-17T19:56:19.657Z,2.68
2023-02-17T19:58:53.402Z,2.65
2023-02-17T20:01:31.004Z,2.67
2023-02-17T20:04:06.233Z,2.67
2023-02-17T20:06:44.958Z,2.65
2023-02-17T20:09:20.588Z,2.57
2023-02-17T20:11:54.095Z,2.60
2023-02-17T20:14:27.590Z,2.52
2023-02-17T20:17:01.411Z,2.62
2023-02-17T20:19:35.188Z,2.65
2023-02-17T20:22:09.874Z,2.66
2023-02-17T20:24:43.245Z,2.58
2023-02-17T20:27:16.463Z,2.55
2023-02-17T20:29:49.541Z,2.59
2023-02-17T20:32:22.882Z,2.68
2023-02-17T20:34:56.058Z,2.74
2023-02-17T20:37:28.947Z,2.79
2023-02-17T20:40:04.183Z,2.83
2023-02-17T20:42:37.273Z,2.87
2023-02-17T20:45:10.506Z,2.93
2023-02-17T20:47:43.449Z,2.99
2023-02-17T20:50:21.764Z,3.05
2023-02-17T20:52:54.936Z,3.15
2023-02-17T20:55:28.792Z,3.14
2023-02-17T20:58:02.181Z,3.26
2023-02-17T21:00:35.135Z,3.46
2023-02-17T21:03:08.967Z,3.50
2023-02-17T21:05:42.580Z,3.66
2023-02-17T21:08:16.014Z,3.74
2023-02-17T21:10:50.172Z,3.82
2023-02-17T21:13:23.560Z,3.91
2023-02-17T21:15:56.637Z,3.90
2023-02-17T21:18:29.719Z,4.04
2023-02-17T21:21:02.884Z,4.04
2023-02-17T21:23:36.516Z,4.18
2023-02-17T21:26:11.611Z,4.21
2023-02-17T21:28:45.607Z,4.15
2023-02-17T21:31:19.824Z,4.26
2023-02-17T21:33:53.124Z,4.30
2023-02-17T21:36:28.963Z,4.33
2023-02-17T21:39:04.771Z,4.37
2023-02-17T21:41:37.956Z,4.31
2023-02-17T21:44:31.962Z,4.41
2023-02-17T21:47:05.400Z,4.43
2023-02-17T21:49:39.044Z,4.45
2023-02-17T21:52:12.041Z,4.45
2023-02-17T21:54:45.452Z,4.42
2023-02-17T21:57:18.687Z,4.47
2023-02-17T21:59:52.109Z,4.41
2023-02-17T22:02:25.690Z,4.49
2023-02-17T22:04:59.126Z,4.50
2023-02-17T22:07:32.222Z,4.45
2023-02-17T22:10:08.105Z,4.41
2023-02-17T22:12:41.387Z,4.43
2023-02-17T22:15:18.124Z,4.46
2023-02-17T22:17:51.042Z,4.50
2023-02-17T22:20:25.058Z,4.55
2023-02-17T22:22:58.548Z,4.58
2023-02-17T22:25:32.282Z,4.61
2023-02-17T22:28:05.223Z,4.64
2023-02-17T22:30:38.687Z,4.68
2023-02-17T22:33:12.034Z,4.72
2023-02-17T22:35:45.034Z,4.78
2023-02-17T22:38:18.538Z,4.68
2023-02-17T22:40:51.706Z,4.77
2023-02-17T22:43:25.658Z,4.88
2023-02-17T22:46:02.176Z,4.86
2023-02-17T22:48:37.058Z,5.00
2023-02-17T22:51:15.626Z,5.07
2023-02-17T22:53:49.213Z,5.12
2023-02-17T22:56:23.341Z,5.12
2023-02-17T22:59:01.605Z,5.14
2023-02-17T23:01:36.945Z,5.14
2023-02-17T23:04:13.922Z,5.16
2023-02-17T23:06:47.252Z,5.16
2023-02-17T23:09:21.662Z,5.07
2023-02-17T23:11:58.322Z,5.16
2023-02-17T23:14:36.348Z,5.02
2023-02-17T23:17:13.470Z,5.02
2023-02-17T23:19:48.108Z,4.95
2023-02-17T23:22:21.613Z,4.78
2023-02-17T23:24:55.014Z,4.69
2023-02-17T23:27:28.596Z,4.68
2023-02-17T23:30:01.364Z,4.54
2023-02-17T23:32:35.678Z,4.60
2023-02-17T23:35:09.290Z,4.55
2023-02-17T23:37:42.675Z,4.21
2023-02-17T23:40:16.796Z,4.36
2023-02-17T23:42:49.855Z,4.52
2023-02-17T23:45:23.357Z,4.60
2023-02-17T23:47:56.925Z,4.65
2023-02-17T23:50:30.587Z,4.72
2023-02-17T23:53:04.209Z,4.78
2023-02-17T23:55:37.457Z,4.81
2023-02-17T23:58:11.184Z,4.92
